createdAt,value
2018-11-27T00:00:33.977Z,86.37
2018-11-27T00:01:33.963Z,86.37
2018-11-27T00:02:33.952Z,86.68
2018-11-27T00:03:33.943Z,86.78
2018-11-27T00:04:33.929Z,86.06
2018-11-27T00:05:33.922Z,85.85
2018-11-27T00:06:33.909Z,85.75
2018-11-27T00:07:33.899Z,86.06
2018-11-27T00:08:33.889Z,86.47
2018-11-27T00:09:33.877Z,87.03
2018-11-27T00:10:33.875Z,87.55
2018-11-27T00:11:33.854Z,87.76
2018-11-27T00:12:33.846Z,87.96
2018-11-27T00:13:33.834Z,87.76
2018-11-27T00:14:33.825Z,87.86
2018-11-27T00:15:33.812Z,87.86
2018-11-27T00:16:33.802Z,87.76
2018-11-27T00:17:33.793Z,87.45
2018-11-27T00:18:33.781Z,87.65
2018-11-27T00:19:33.770Z,87.65
2018-11-27T00:20:33.763Z,88.07
2018-11-27T00:21:33.749Z,88.17
2018-11-27T00:22:33.737Z,87.86
2018-11-27T00:23:33.726Z,87.76
2018-11-27T00:24:33.716Z,87.76
2018-11-27T00:25:33.708Z,87.86
2018-11-27T00:26:33.694Z,87.76
2018-11-27T00:27:33.684Z,87.86
2018-11-27T00:28:33.676Z,88.17
2018-11-27T00:29:33.663Z,88.58
2018-11-27T00:30:33.651Z,88.69
2018-11-27T00:31:33.639Z,88.79
2018-11-27T00:32:33.630Z,89.10
2018-11-27T00:33:33.619Z,89.52
2018-11-27T00:34:33.608Z,89.52
2018-11-27T00:35:33.596Z,89.52
2018-11-27T00:36:33.586Z,89.52
2018-11-27T00:37:33.578Z,89.35
2018-11-27T00:38:33.563Z,89.25
2018-11-27T00:39:33.554Z,89.14
2018-11-27T00:40:33.541Z,88.83
2018-11-27T00:41:33.530Z,89.14
2018-11-27T00:42:33.521Z,89.14
2018-11-27T00:43:33.512Z,89.04
2018-11-27T00:44:33.500Z,89.04
2018-11-27T00:45:33.487Z,89.04
2018-11-27T00:46:33.476Z,89.14
2018-11-27T00:47:33.466Z,88.52
2018-11-27T00:48:33.455Z,88.94
2018-11-27T00:49:33.445Z,89.39
2018-11-27T00:50:33.437Z,89.50
2018-11-27T00:51:33.426Z,89.29
2018-11-27T00:52:33.416Z,89.70
2018-11-27T00:53:33.403Z,89.70
2018-11-27T00:54:33.391Z,89.91
2018-11-27T00:55:33.382Z,89.50
2018-11-27T00:56:33.369Z,89.50
2018-11-27T00:57:33.359Z,89.70
2018-11-27T00:58:33.346Z,89.50
2018-11-27T00:59:33.337Z,89.39
2018-11-27T01:00:33.325Z,89.19
2018-11-27T01:01:33.316Z,89.39
2018-11-27T01:02:33.303Z,89.19
2018-11-27T01:03:33.293Z,89.19
2018-11-27T01:04:33.283Z,88.87
2018-11-27T01:05:33.271Z,88.77
2018-11-27T01:06:33.261Z,88.56
2018-11-27T01:07:33.248Z,88.25
2018-11-27T01:08:33.240Z,88.04
2018-11-27T01:09:33.229Z,88.56
2018-11-27T01:10:33.219Z,88.98
2018-11-27T01:11:33.209Z,88.87
2018-11-27T01:12:33.195Z,88.98
2018-11-27T01:13:33.185Z,88.87
2018-11-27T01:14:33.174Z,88.77
2018-11-27T01:15:33.163Z,88.77
2018-11-27T01:16:33.154Z,88.67
2018-11-27T01:17:33.144Z,88.36
2018-11-27T01:18:33.131Z,88.36
2018-11-27T01:19:33.127Z,88.36
2018-11-27T01:20:33.113Z,88.04
2018-11-27T01:21:33.101Z,87.94
2018-11-27T01:22:33.090Z,87.84
2018-11-27T01:23:33.078Z,87.84
2018-11-27T01:24:33.067Z,88.04
2018-11-27T01:25:33.055Z,88.15
2018-11-27T01:26:33.050Z,88.46
2018-11-27T01:27:33.036Z,88.46
2018-11-27T01:28:33.025Z,88.67
2018-11-27T01:29:33.013Z,89.08
2018-11-27T01:30:33.001Z,89.19
2018-11-27T01:31:32.995Z,89.39
2018-11-27T01:32:32.979Z,89.54
2018-11-27T01:33:32.970Z,89.64
2018-11-27T01:34:32.961Z,89.64
2018-11-27T01:35:32.950Z,89.85
2018-11-27T01:36:32.937Z,89.95
2018-11-27T01:37:32.928Z,90.06
2018-11-27T01:38:32.913Z,90.06
2018-11-27T01:39:32.903Z,89.95
2018-11-27T01:40:32.893Z,90.16
2018-11-27T01:41:32.881Z,90.27
2018-11-27T01:42:32.905Z,90.16
2018-11-27T01:43:32.860Z,89.64
2018-11-27T01:44:32.852Z,89.75
2018-11-27T01:45:32.838Z,89.75
2018-11-27T01:46:32.828Z,89.85
2018-11-27T01:47:32.817Z,89.54
2018-11-27T01:48:32.807Z,89.54
2018-11-27T01:49:32.794Z,89.44
2018-11-27T01:50:32.795Z,89.37
2018-11-27T01:51:32.776Z,89.06
2018-11-27T01:52:32.764Z,89.16
2018-11-27T01:53:32.753Z,89.06
2018-11-27T01:54:32.741Z,88.95
2018-11-27T01:55:32.731Z,89.06
2018-11-27T01:56:32.719Z,89.58
2018-11-27T01:57:32.707Z,89.93
2018-11-27T01:58:32.699Z,89.93
2018-11-27T01:59:32.686Z,90.03
2018-11-27T02:00:32.684Z,90.03
2018-11-27T02:01:32.665Z,90.03
2018-11-27T02:02:32.652Z,90.14
2018-11-27T02:03:32.643Z,89.93
2018-11-27T02:04:32.633Z,89.62
2018-11-27T02:05:32.623Z,89.83
2018-11-27T02:06:32.611Z,90.03
2018-11-27T02:07:32.598Z,89.83
2018-11-27T02:08:32.590Z,89.77
2018-11-27T02:09:32.581Z,89.56
2018-11-27T02:10:32.569Z,89.56
2018-11-27T02:11:32.560Z,89.87
2018-11-27T02:12:32.544Z,89.97
2018-11-27T02:13:32.533Z,89.77
2018-11-27T02:14:32.524Z,89.56
2018-11-27T02:15:32.511Z,89.35
2018-11-27T02:16:32.502Z,89.70
2018-11-27T02:17:32.488Z,89.81
2018-11-27T02:18:32.480Z,89.91
2018-11-27T02:19:32.467Z,89.59
2018-11-27T02:20:32.457Z,89.49
2018-11-27T02:21:32.448Z,89.81
2018-11-27T02:22:32.436Z,89.70
2018-11-27T02:23:32.425Z,89.84
2018-11-27T02:24:32.415Z,90.58
2018-11-27T02:25:32.404Z,90.16
2018-11-27T02:26:32.391Z,90.41
2018-11-27T02:27:32.381Z,90.72
2018-11-27T02:28:32.370Z,91.04
2018-11-27T02:29:32.363Z,90.89
2018-11-27T02:30:32.349Z,90.68
2018-11-27T02:31:32.340Z,90.68
2018-11-27T02:32:32.326Z,90.26
2018-11-27T02:33:32.317Z,90.47
2018-11-27T02:34:32.307Z,90.58
2018-11-27T02:35:32.295Z,90.72
2018-11-27T02:36:32.286Z,91.04
2018-11-27T02:37:32.272Z,91.35
2018-11-27T02:38:32.268Z,91.45
2018-11-27T02:39:32.252Z,91.49
2018-11-27T02:40:32.241Z,91.60
2018-11-27T02:41:32.232Z,91.91
2018-11-27T02:42:32.217Z,91.76
2018-11-27T02:43:32.210Z,91.35
2018-11-27T02:44:32.197Z,91.18
2018-11-27T02:45:32.186Z,91.28
2018-11-27T02:46:32.176Z,91.18
2018-11-27T02:47:32.165Z,91.07
2018-11-27T02:48:32.153Z,91.07
2018-11-27T02:49:32.146Z,91.39
2018-11-27T02:50:32.132Z,91.60
2018-11-27T02:51:32.122Z,91.32
2018-11-27T02:52:32.112Z,91.32
2018-11-27T02:53:32.098Z,91.74
2018-11-27T02:54:32.090Z,92.20
2018-11-27T02:55:32.122Z,92.47
2018-11-27T02:56:32.066Z,92.37
2018-11-27T02:57:32.055Z,91.64
2018-11-27T02:58:32.045Z,91.47
2018-11-27T02:59:32.037Z,91.99
2018-11-27T03:00:32.024Z,92.10
2018-11-27T03:01:32.018Z,92.20
2018-11-27T03:02:32.000Z,92.20
2018-11-27T03:03:31.991Z,92.20
2018-11-27T03:04:31.980Z,92.51
2018-11-27T03:05:31.987Z,92.41
2018-11-27T03:06:31.957Z,92.51
2018-11-27T03:07:31.947Z,92.72
2018-11-27T03:08:31.939Z,92.72
2018-11-27T03:09:31.928Z,92.62
2018-11-27T03:10:31.917Z,92.72
2018-11-27T03:11:31.910Z,92.51
2018-11-27T03:12:31.893Z,92.35
2018-11-27T03:13:31.882Z,92.55
2018-11-27T03:14:31.871Z,92.55
2018-11-27T03:15:31.860Z,92.45
2018-11-27T03:16:31.851Z,92.14
2018-11-27T03:17:31.841Z,92.03
2018-11-27T03:18:31.829Z,92.24
2018-11-27T03:19:31.820Z,92.55
2018-11-27T03:20:31.807Z,92.55
2018-11-27T03:21:31.795Z,92.49
2018-11-27T03:22:31.789Z,92.39
2018-11-27T03:23:31.775Z,92.39
2018-11-27T03:24:31.765Z,92.29
2018-11-27T03:25:31.753Z,92.18
2018-11-27T03:26:31.741Z,92.39
2018-11-27T03:27:31.735Z,92.43
2018-11-27T03:28:31.722Z,92.64
2018-11-27T03:29:31.712Z,92.85
2018-11-27T03:30:31.700Z,92.85
2018-11-27T03:31:31.701Z,92.64
2018-11-27T03:32:31.679Z,92.85
2018-11-27T03:33:31.669Z,92.95
2018-11-27T03:34:31.664Z,93.37
2018-11-27T03:35:31.644Z,93.68
2018-11-27T03:36:31.637Z,93.68
2018-11-27T03:37:31.624Z,93.48
2018-11-27T03:38:31.613Z,93.48
2018-11-27T03:39:31.600Z,93.48
2018-11-27T03:40:31.590Z,93.48
2018-11-27T03:41:31.584Z,93.48
2018-11-27T03:42:31.569Z,93.37
2018-11-27T03:43:31.560Z,93.16
2018-11-27T03:44:31.547Z,92.85
2018-11-27T03:45:31.537Z,92.64
2018-11-27T03:46:31.526Z,93.26
2018-11-27T03:47:31.514Z,93.26
2018-11-27T03:48:31.507Z,93.16
2018-11-27T03:49:31.496Z,92.79
2018-11-27T03:50:31.487Z,92.79
2018-11-27T03:51:31.475Z,93.20
2018-11-27T03:52:31.462Z,93.31
2018-11-27T03:53:31.452Z,93.31
2018-11-27T03:54:31.442Z,93.31
2018-11-27T03:55:31.440Z,93.20
2018-11-27T03:56:31.418Z,93.31
2018-11-27T03:57:31.424Z,93.31
2018-11-27T03:58:31.400Z,93.62
2018-11-27T03:59:31.389Z,93.52
2018-11-27T04:00:31.377Z,93.52
2018-11-27T04:01:31.364Z,93.41
2018-11-27T04:02:31.353Z,93.52
2018-11-27T04:03:31.349Z,93.83
2018-11-27T04:04:31.333Z,94.04
2018-11-27T04:05:31.321Z,93.93
2018-11-27T04:06:31.312Z,93.73
2018-11-27T04:07:31.301Z,93.52
2018-11-27T04:08:31.292Z,94.04
2018-11-27T04:09:31.279Z,94.25
2018-11-27T04:10:31.269Z,94.25
2018-11-27T04:11:31.256Z,94.14
2018-11-27T04:12:31.247Z,94.04
2018-11-27T04:13:31.236Z,94.04
2018-11-27T04:14:31.224Z,94.08
2018-11-27T04:15:31.215Z,94.50
2018-11-27T04:16:31.205Z,94.71
2018-11-27T04:17:31.198Z,94.71
2018-11-27T04:18:31.182Z,94.92
2018-11-27T04:19:31.171Z,95.02
2018-11-27T04:20:32.305Z,95.44
2018-11-27T04:21:31.149Z,95.86
2018-11-27T04:22:31.138Z,95.96
2018-11-27T04:23:31.133Z,95.96
2018-11-27T04:24:31.117Z,96.06
2018-11-27T04:25:31.106Z,96.06
2018-11-27T04:26:31.092Z,96.27
2018-11-27T04:27:31.083Z,96.17
2018-11-27T04:28:31.077Z,96.06
2018-11-27T04:29:31.062Z,95.96
2018-11-27T04:30:31.052Z,95.96
2018-11-27T04:31:31.041Z,95.75
2018-11-27T04:32:31.031Z,95.65
2018-11-27T04:33:31.017Z,95.55
2018-11-27T04:34:31.008Z,95.44
2018-11-27T04:35:30.998Z,95.44
2018-11-27T04:36:30.984Z,95.65
2018-11-27T04:37:30.987Z,95.96
2018-11-27T04:38:30.962Z,95.65
2018-11-27T04:39:30.953Z,95.44
2018-11-27T04:40:30.944Z,95.08
2018-11-27T04:41:30.935Z,94.92
2018-11-27T04:42:30.921Z,94.81
2018-11-27T04:43:30.908Z,94.92
2018-11-27T04:44:30.897Z,95.02
2018-11-27T04:45:30.889Z,94.92
2018-11-27T04:46:30.885Z,94.71
2018-11-27T04:47:30.867Z,94.71
2018-11-27T04:48:30.876Z,94.81
2018-11-27T04:49:30.848Z,94.81
2018-11-27T04:50:30.833Z,94.71
2018-11-27T04:51:30.820Z,94.71
2018-11-27T04:52:30.812Z,94.50
2018-11-27T04:53:30.799Z,94.29
2018-11-27T04:54:30.788Z,94.18
2018-11-27T04:55:30.781Z,94.43
2018-11-27T04:56:30.766Z,94.75
2018-11-27T04:57:30.756Z,94.86
2018-11-27T04:58:30.747Z,95.06
2018-11-27T04:59:30.734Z,95.37
2018-11-27T05:00:30.723Z,95.48
2018-11-27T05:01:30.712Z,95.59
2018-11-27T05:02:30.703Z,95.80
2018-11-27T05:03:30.692Z,95.84
2018-11-27T05:04:30.682Z,95.94
2018-11-27T05:05:30.672Z,96.00
2018-11-27T05:06:30.660Z,96.11
2018-11-27T05:07:30.649Z,96.32
2018-11-27T05:08:30.639Z,96.42
2018-11-27T05:09:30.625Z,96.38
2018-11-27T05:10:30.617Z,96.17
2018-11-27T05:11:30.610Z,95.86
2018-11-27T05:12:30.595Z,95.55
2018-11-27T05:13:30.585Z,95.23
2018-11-27T05:14:30.573Z,95.23
2018-11-27T05:15:30.563Z,95.02
2018-11-27T05:16:30.552Z,94.81
2018-11-27T05:17:30.540Z,94.71
2018-11-27T05:18:30.528Z,94.61
2018-11-27T05:19:30.518Z,94.92
2018-11-27T05:20:30.509Z,95.06
2018-11-27T05:21:30.497Z,95.33
2018-11-27T05:22:30.484Z,95.55
2018-11-27T05:23:30.474Z,95.37
2018-11-27T05:24:30.465Z,95.17
2018-11-27T05:25:30.452Z,95.37
2018-11-27T05:26:30.440Z,95.37
2018-11-27T05:27:30.432Z,95.59
2018-11-27T05:28:30.421Z,95.80
2018-11-27T05:29:30.410Z,95.90
2018-11-27T05:30:30.399Z,95.90
2018-11-27T05:31:30.391Z,95.69
2018-11-27T05:32:30.376Z,95.69
2018-11-27T05:33:30.366Z,95.90
2018-11-27T05:34:30.355Z,96.06
2018-11-27T05:35:30.348Z,96.06
2018-11-27T05:36:30.334Z,96.17
2018-11-27T05:37:30.325Z,96.17
2018-11-27T05:38:30.312Z,95.96
2018-11-27T05:39:30.302Z,95.81
2018-11-27T05:40:30.293Z,95.61
2018-11-27T05:41:30.282Z,95.50
2018-11-27T05:42:30.272Z,95.19
2018-11-27T05:43:30.265Z,94.98
2018-11-27T05:44:30.249Z,94.98
2018-11-27T05:45:30.239Z,94.77
2018-11-27T05:46:30.226Z,94.62
2018-11-27T05:47:30.216Z,94.31
2018-11-27T05:48:30.205Z,94.20
2018-11-27T05:49:30.196Z,94.00
2018-11-27T05:50:30.182Z,93.79
2018-11-27T05:51:30.171Z,93.73
2018-11-27T05:52:30.164Z,94.04
2018-11-27T05:53:30.151Z,94.04
2018-11-27T05:54:30.143Z,93.93
2018-11-27T05:55:30.128Z,93.83
2018-11-27T05:56:30.121Z,94.04
2018-11-27T05:57:30.109Z,94.25
2018-11-27T05:58:30.098Z,94.35
2018-11-27T05:59:30.088Z,94.45
2018-11-27T06:00:30.077Z,94.56
2018-11-27T06:01:30.065Z,94.35
2018-11-27T06:02:30.054Z,94.35
2018-11-27T06:03:30.044Z,94.14
2018-11-27T06:04:30.034Z,93.93
2018-11-27T06:05:30.021Z,93.83
2018-11-27T06:06:30.011Z,93.93
2018-11-27T06:07:30.000Z,94.00
2018-11-27T06:08:29.991Z,93.79
2018-11-27T06:09:29.979Z,93.89
2018-11-27T06:10:29.968Z,93.79
2018-11-27T06:11:29.959Z,93.73
2018-11-27T06:12:29.948Z,93.73
2018-11-27T06:13:29.945Z,93.62
2018-11-27T06:14:29.926Z,93.73
2018-11-27T06:15:29.916Z,93.83
2018-11-27T06:16:29.903Z,93.93
2018-11-27T06:17:29.892Z,93.83
2018-11-27T06:18:29.882Z,93.93
2018-11-27T06:19:29.874Z,93.83
2018-11-27T06:20:29.857Z,94.04
2018-11-27T06:21:29.848Z,94.18
2018-11-27T06:22:29.840Z,94.25
2018-11-27T06:23:29.829Z,94.04
2018-11-27T06:24:29.825Z,94.04
2018-11-27T06:25:29.810Z,94.14
2018-11-27T06:26:29.796Z,94.25
2018-11-27T06:27:29.784Z,94.35
2018-11-27T06:28:29.773Z,94.25
2018-11-27T06:29:29.763Z,94.25
2018-11-27T06:30:29.759Z,94.14
2018-11-27T06:31:29.741Z,94.14
2018-11-27T06:32:29.732Z,94.04
2018-11-27T06:33:29.722Z,93.98
2018-11-27T06:34:29.708Z,93.98
2018-11-27T06:35:29.698Z,93.87
2018-11-27T06:36:29.688Z,93.87
2018-11-27T06:37:29.678Z,93.98
2018-11-27T06:38:29.667Z,94.18
2018-11-27T06:39:29.656Z,94.39
2018-11-27T06:40:29.646Z,94.29
2018-11-27T06:41:29.634Z,93.87
2018-11-27T06:42:29.625Z,93.87
2018-11-27T06:43:29.615Z,93.87
2018-11-27T06:44:29.609Z,94.18
2018-11-27T06:45:29.592Z,94.39
2018-11-27T06:46:29.584Z,94.81
2018-11-27T06:47:29.571Z,94.61
2018-11-27T06:48:29.560Z,94.29
2018-11-27T06:49:29.551Z,94.08
2018-11-27T06:50:29.541Z,94.08
2018-11-27T06:51:29.538Z,93.67
2018-11-27T06:52:29.519Z,93.67
2018-11-27T06:53:29.506Z,93.56
2018-11-27T06:54:29.496Z,93.81
2018-11-27T06:55:29.485Z,94.02
2018-11-27T06:56:29.474Z,94.33
2018-11-27T06:57:29.465Z,94.43
2018-11-27T06:58:29.455Z,94.54
2018-11-27T06:59:29.445Z,94.75
2018-11-27T07:00:29.431Z,94.65
2018-11-27T07:01:29.420Z,94.75
2018-11-27T07:02:29.411Z,94.65
2018-11-27T07:03:29.400Z,94.75
2018-11-27T07:04:29.387Z,94.96
2018-11-27T07:05:29.383Z,95.17
2018-11-27T07:06:29.367Z,95.17
2018-11-27T07:07:29.358Z,95.17
2018-11-27T07:08:29.346Z,95.06
2018-11-27T07:09:29.334Z,94.86
2018-11-27T07:10:29.327Z,94.75
2018-11-27T07:11:29.312Z,94.65
2018-11-27T07:12:29.302Z,94.65
2018-11-27T07:13:29.295Z,94.50
2018-11-27T07:14:29.282Z,94.18
2018-11-27T07:15:29.321Z,94.08
2018-11-27T07:16:29.260Z,93.98
2018-11-27T07:17:29.248Z,94.08
2018-11-27T07:18:29.240Z,94.29
2018-11-27T07:19:29.228Z,94.18
2018-11-27T07:20:29.217Z,94.29
2018-11-27T07:21:29.207Z,94.18
2018-11-27T07:22:29.193Z,94.18
2018-11-27T07:23:29.183Z,94.39
2018-11-27T07:24:29.173Z,94.39
2018-11-27T07:25:29.165Z,94.50
2018-11-27T07:26:29.150Z,94.56
2018-11-27T07:27:29.139Z,94.35
2018-11-27T07:28:29.131Z,94.35
2018-11-27T07:29:29.121Z,94.25
2018-11-27T07:30:29.107Z,94.35
2018-11-27T07:31:29.099Z,94.35
2018-11-27T07:32:29.090Z,94.25
2018-11-27T07:33:29.076Z,94.35
2018-11-27T07:34:29.067Z,94.56
2018-11-27T07:35:29.068Z,94.67
2018-11-27T07:36:29.044Z,94.56
2018-11-27T07:37:29.032Z,94.56
2018-11-27T07:38:29.022Z,94.56
2018-11-27T07:39:29.014Z,94.56
2018-11-27T07:40:29.005Z,94.51
2018-11-27T07:41:28.989Z,94.51
2018-11-27T07:42:28.980Z,94.31
2018-11-27T07:43:28.970Z,94.31
2018-11-27T07:44:28.957Z,94.31
2018-11-27T07:45:28.949Z,94.20
2018-11-27T07:46:28.939Z,93.79
2018-11-27T07:47:28.927Z,93.48
2018-11-27T07:48:28.924Z,93.48
2018-11-27T07:49:28.916Z,93.58
2018-11-27T07:50:28.892Z,93.68
2018-11-27T07:51:28.882Z,93.68
2018-11-27T07:52:28.870Z,93.68
2018-11-27T07:53:28.863Z,94.00
2018-11-27T07:54:28.852Z,94.00
2018-11-27T07:55:28.838Z,93.95
2018-11-27T07:56:28.828Z,93.75
2018-11-27T07:57:28.818Z,93.85
2018-11-27T07:58:28.805Z,93.75
2018-11-27T07:59:28.796Z,93.64
2018-11-27T08:00:28.787Z,93.54
2018-11-27T08:01:28.782Z,93.43
2018-11-27T08:02:28.763Z,93.49
2018-11-27T08:03:28.757Z,93.49
2018-11-27T08:04:28.745Z,93.49
2018-11-27T08:05:28.731Z,93.70
2018-11-27T08:06:28.741Z,93.81
2018-11-27T08:07:28.726Z,93.60
2018-11-27T08:08:28.697Z,93.49
2018-11-27T08:09:28.686Z,93.18
2018-11-27T08:10:28.676Z,92.97
2018-11-27T08:11:28.669Z,92.76
2018-11-27T08:12:28.656Z,92.55
2018-11-27T08:13:28.644Z,92.87
2018-11-27T08:14:28.632Z,93.07
2018-11-27T08:15:28.621Z,93.07
2018-11-27T08:16:28.610Z,92.93
2018-11-27T08:17:28.607Z,93.03
2018-11-27T08:18:28.593Z,92.82
2018-11-27T08:19:28.579Z,92.72
2018-11-27T08:20:28.612Z,92.37
2018-11-27T08:21:28.556Z,91.95
2018-11-27T08:22:28.550Z,91.64
2018-11-27T08:23:28.536Z,91.64
2018-11-27T08:24:28.525Z,91.85
2018-11-27T08:25:28.519Z,91.85
2018-11-27T08:26:28.503Z,92.05
2018-11-27T08:27:28.492Z,92.16
2018-11-27T08:28:28.487Z,92.05
2018-11-27T08:29:28.471Z,92.26
2018-11-27T08:30:28.459Z,92.26
2018-11-27T08:31:28.450Z,92.47
2018-11-27T08:32:28.440Z,92.88
2018-11-27T08:33:28.426Z,92.78
2018-11-27T08:34:28.419Z,92.68
2018-11-27T08:35:28.409Z,92.68
2018-11-27T08:36:28.396Z,92.47
2018-11-27T08:37:28.384Z,92.05
2018-11-27T08:38:28.375Z,91.11
2018-11-27T08:39:28.365Z,91.74
2018-11-27T08:40:28.357Z,92.01
2018-11-27T08:41:28.344Z,92.01
2018-11-27T08:42:28.332Z,91.49
2018-11-27T08:43:28.319Z,91.07
2018-11-27T08:44:28.309Z,91.18
2018-11-27T08:45:28.300Z,91.49
2018-11-27T08:46:28.302Z,91.07
2018-11-27T08:47:28.284Z,90.66
2018-11-27T08:48:28.268Z,90.45
2018-11-27T08:49:28.256Z,90.55
2018-11-27T08:50:28.244Z,90.61
2018-11-27T08:51:28.233Z,90.20
2018-11-27T08:52:28.223Z,90.10
2018-11-27T08:53:28.213Z,89.78
2018-11-27T08:54:28.201Z,89.89
2018-11-27T08:55:28.194Z,90.51
2018-11-27T08:56:28.182Z,90.41
2018-11-27T08:57:28.170Z,90.30
2018-11-27T08:58:28.161Z,90.20
2018-11-27T08:59:28.146Z,89.37
2018-11-27T09:00:28.135Z,89.95
2018-11-27T09:01:28.126Z,90.47
2018-11-27T09:02:28.115Z,90.05
2018-11-27T09:03:28.103Z,89.95
2018-11-27T09:04:28.094Z,90.36
2018-11-27T09:05:28.083Z,90.89
2018-11-27T09:06:28.074Z,90.68
2018-11-27T09:07:28.060Z,90.16
2018-11-27T09:08:28.052Z,89.33
2018-11-27T09:09:28.038Z,89.12
2018-11-27T09:10:28.029Z,89.22
2018-11-27T09:11:28.023Z,88.45
2018-11-27T09:12:28.007Z,88.45
2018-11-27T09:13:27.998Z,88.66
2018-11-27T09:14:27.987Z,88.20
2018-11-27T09:15:27.976Z,87.68
2018-11-27T09:16:27.965Z,87.79
2018-11-27T09:17:27.953Z,88.20
2018-11-27T09:18:27.944Z,88.00
2018-11-27T09:19:27.932Z,87.54
2018-11-27T09:20:27.926Z,87.23
2018-11-27T09:21:27.910Z,87.44
2018-11-27T09:22:27.900Z,87.65
2018-11-27T09:23:27.890Z,87.37
2018-11-27T09:24:27.902Z,87.68
2018-11-27T09:25:27.867Z,88.10
2018-11-27T09:26:27.856Z,87.89
2018-11-27T09:27:27.846Z,88.27
2018-11-27T09:28:27.836Z,87.86
2018-11-27T09:29:27.830Z,88.06
2018-11-27T09:30:27.813Z,88.17
2018-11-27T09:31:27.804Z,87.96
2018-11-27T09:32:27.797Z,88.37
2018-11-27T09:33:27.782Z,88.17
2018-11-27T09:34:28.535Z,87.92
2018-11-27T09:35:27.761Z,87.60
2018-11-27T09:36:27.750Z,87.29
2018-11-27T09:37:27.739Z,87.29
2018-11-27T09:38:27.728Z,87.50
2018-11-27T09:39:27.722Z,87.71
2018-11-27T09:40:27.706Z,87.71
2018-11-27T09:41:27.698Z,87.50
2018-11-27T09:42:27.685Z,87.29
2018-11-27T09:43:27.675Z,86.84
2018-11-27T09:44:27.663Z,86.32
2018-11-27T09:45:27.656Z,86.53
2018-11-27T09:46:27.644Z,86.22
2018-11-27T09:47:27.635Z,86.28
2018-11-27T09:48:27.631Z,84.83
2018-11-27T09:49:27.617Z,85.24
2018-11-27T09:50:27.600Z,86.18
2018-11-27T09:51:27.590Z,85.76
2018-11-27T09:52:27.579Z,86.14
2018-11-27T09:53:27.568Z,85.31
2018-11-27T09:54:27.557Z,85.21
2018-11-27T09:55:27.553Z,85.21
2018-11-27T09:56:27.540Z,84.58
2018-11-27T09:57:27.523Z,84.69
2018-11-27T09:58:27.518Z,85.31
2018-11-27T09:59:27.504Z,86.04
2018-11-27T10:00:27.495Z,86.04
2018-11-27T10:01:27.484Z,86.34
2018-11-27T10:02:27.472Z,85.41
2018-11-27T10:03:27.462Z,85.93
2018-11-27T10:04:27.452Z,86.45
2018-11-27T10:05:27.443Z,86.55
2018-11-27T10:06:27.431Z,86.86
2018-11-27T10:07:27.902Z,86.24
2018-11-27T10:08:27.407Z,86.14
2018-11-27T10:09:27.397Z,85.62
2018-11-27T10:10:27.385Z,85.41
2018-11-27T10:11:27.374Z,86.14
2018-11-27T10:12:27.364Z,86.04
2018-11-27T10:13:27.359Z,86.41
2018-11-27T10:14:27.344Z,86.20
2018-11-27T10:15:27.330Z,86.10
2018-11-27T10:16:27.321Z,84.96
2018-11-27T10:17:27.311Z,83.82
2018-11-27T10:18:27.302Z,83.20
2018-11-27T10:19:28.250Z,82.37
2018-11-27T10:20:27.277Z,82.58
2018-11-27T10:21:27.266Z,82.85
2018-11-27T10:22:27.255Z,82.85
2018-11-27T10:23:27.244Z,82.60
2018-11-27T10:24:27.234Z,82.18
2018-11-27T10:25:27.230Z,81.67
2018-11-27T10:26:27.212Z,80.91
2018-11-27T10:27:27.201Z,80.29
2018-11-27T10:28:31.774Z,80.39
2018-11-27T10:29:27.181Z,80.49
2018-11-27T10:30:27.171Z,81.22
2018-11-27T10:31:27.157Z,81.32
2018-11-27T10:32:27.148Z,81.84
2018-11-27T10:33:27.136Z,81.64
2018-11-27T10:34:27.127Z,81.84
2018-11-27T10:35:27.127Z,80.56
2018-11-27T10:36:27.106Z,79.52
2018-11-27T10:37:27.096Z,77.97
2018-11-27T10:38:27.085Z,78.28
2018-11-27T10:39:27.074Z,78.80
2018-11-27T10:40:27.063Z,78.87
2018-11-27T10:41:27.052Z,78.56
2018-11-27T10:42:30.101Z,79.08
2018-11-27T10:43:27.029Z,78.56
2018-11-27T10:44:27.020Z,78.77
2018-11-27T10:45:27.009Z,79.49
2018-11-27T10:46:26.997Z,78.97
2018-11-27T10:47:26.987Z,78.94
2018-11-27T10:48:26.979Z,77.18
2018-11-27T10:49:26.966Z,76.04
2018-11-27T10:50:26.955Z,77.39
2018-11-27T10:51:26.943Z,77.56
2018-11-27T10:52:26.946Z,77.77
2018-11-27T10:53:26.920Z,77.45
2018-11-27T10:54:26.912Z,77.04
2018-11-27T10:55:26.901Z,76.01
2018-11-27T10:56:26.888Z,73.98
2018-11-27T10:57:26.881Z,71.50
2018-11-27T10:58:26.871Z,71.94
2018-11-27T10:59:26.857Z,72.25
2018-11-27T11:00:26.847Z,71.22
2018-11-27T11:01:26.836Z,71.32
2018-11-27T11:02:26.823Z,70.29
2018-11-27T11:03:26.815Z,70.50
2018-11-27T11:04:26.804Z,71.12
2018-11-27T11:05:27.743Z,71.42
2018-11-27T11:06:26.786Z,71.12
2018-11-27T11:07:26.771Z,70.81
2018-11-27T11:08:26.762Z,71.42
2018-11-27T11:09:26.750Z,71.46
2018-11-27T11:10:26.738Z,69.81
2018-11-27T11:11:26.738Z,69.60
2018-11-27T11:12:26.715Z,69.70
2018-11-27T11:13:26.706Z,67.98
2018-11-27T11:14:26.703Z,67.74
2018-11-27T11:15:26.720Z,67.63
2018-11-27T11:16:26.672Z,66.91
2018-11-27T11:17:26.663Z,67.74
2018-11-27T11:18:26.652Z,68.15
2018-11-27T11:19:26.641Z,68.25
2018-11-27T11:20:26.631Z,67.84
2018-11-27T11:21:26.620Z,69.05
2018-11-27T11:22:26.607Z,68.71
2018-11-27T11:23:26.598Z,68.60
2018-11-27T11:24:26.597Z,68.57
2018-11-27T11:25:26.576Z,67.13
2018-11-27T11:26:26.564Z,65.99
2018-11-27T11:27:26.554Z,65.47
2018-11-27T11:28:26.547Z,66.13
2018-11-27T11:29:26.535Z,65.71
2018-11-27T11:30:26.522Z,66.57
2018-11-27T11:31:26.512Z,66.98
2018-11-27T11:32:26.500Z,66.57
2018-11-27T11:33:26.490Z,66.36
2018-11-27T11:34:26.479Z,66.36
2018-11-27T11:35:26.470Z,66.46
2018-11-27T11:36:26.458Z,66.95
2018-11-27T11:37:26.447Z,66.22
2018-11-27T11:38:26.434Z,66.33
2018-11-27T11:39:26.426Z,65.74
2018-11-27T11:40:26.417Z,65.33
2018-11-27T11:41:31.182Z,65.12
2018-11-27T11:42:26.394Z,65.30
2018-11-27T11:43:26.383Z,65.92
2018-11-27T11:44:26.370Z,64.67
2018-11-27T11:45:26.360Z,64.88
2018-11-27T11:46:26.348Z,64.13
2018-11-27T11:47:26.340Z,64.23
2018-11-27T11:48:26.328Z,64.47
2018-11-27T11:49:26.318Z,64.03
2018-11-27T11:50:26.307Z,64.65
2018-11-27T11:51:26.295Z,65.58
2018-11-27T11:52:26.285Z,64.44
2018-11-27T11:53:26.275Z,64.34
2018-11-27T11:54:26.265Z,64.85
2018-11-27T11:55:26.251Z,64.34
2018-11-27T11:56:26.240Z,64.37
2018-11-27T11:57:26.232Z,64.88
2018-11-27T11:58:26.220Z,65.33
2018-11-27T11:59:28.802Z,65.43
2018-11-27T12:00:26.198Z,66.25
2018-11-27T12:01:26.187Z,65.71
2018-11-27T12:02:26.887Z,65.85
2018-11-27T12:03:26.167Z,66.33
2018-11-27T12:04:26.156Z,66.54
2018-11-27T12:05:26.143Z,66.92
2018-11-27T12:06:26.138Z,65.58
2018-11-27T12:07:26.121Z,65.37
2018-11-27T12:08:26.112Z,65.71
2018-11-27T12:09:26.101Z,65.61
2018-11-27T12:10:26.089Z,65.64
2018-11-27T12:11:26.079Z,66.16
2018-11-27T12:12:26.072Z,66.25
2018-11-27T12:13:26.057Z,66.36
2018-11-27T12:14:26.046Z,66.46
2018-11-27T12:15:26.036Z,66.67
2018-11-27T12:16:26.023Z,66.91
2018-11-27T12:17:26.014Z,67.08
2018-11-27T12:18:26.005Z,66.98
2018-11-27T12:19:25.993Z,67.40
2018-11-27T12:20:25.980Z,66.88
2018-11-27T12:21:25.970Z,67.50
2018-11-27T12:22:25.961Z,67.71
2018-11-27T12:23:25.948Z,68.01
2018-11-27T12:24:25.941Z,68.01
2018-11-27T12:25:25.928Z,68.22
2018-11-27T12:26:25.920Z,68.43
2018-11-27T12:27:25.906Z,68.32
2018-11-27T12:28:25.893Z,68.53
2018-11-27T12:29:25.884Z,68.32
2018-11-27T12:30:25.874Z,68.12
2018-11-27T12:31:25.863Z,67.88
2018-11-27T12:32:25.852Z,67.77
2018-11-27T12:33:25.845Z,67.23
2018-11-27T12:34:25.831Z,67.13
2018-11-27T12:35:25.821Z,66.61
2018-11-27T12:36:25.807Z,66.27
2018-11-27T12:37:25.797Z,66.07
2018-11-27T12:38:25.787Z,65.96
2018-11-27T12:39:25.787Z,65.78
2018-11-27T12:40:25.764Z,65.55
2018-11-27T12:41:25.753Z,65.24
2018-11-27T12:42:25.747Z,65.65
2018-11-27T12:43:25.733Z,65.99
2018-11-27T12:44:25.721Z,66.07
2018-11-27T12:45:25.716Z,66.58
2018-11-27T12:46:25.700Z,66.99
2018-11-27T12:47:25.690Z,67.16
2018-11-27T12:48:25.681Z,66.34
2018-11-27T12:49:25.667Z,65.72
2018-11-27T12:50:25.655Z,65.96
2018-11-27T12:51:25.645Z,65.34
2018-11-27T12:52:25.635Z,65.65